首页
METAR-TAF:

METAR-TAF

机场 :

沃罗涅日, 俄罗斯

纬度: 51-39N, 经度: 039-15E, 海拔: 154米

当前天气观测

该预报发布于27分钟前的19:30 UTC
风速12节,风向
温度 9°C
湿度 87%
气压 995 hPa
能见度10公里或以上
多云层高于2400英尺, 积雨云.

METAR: UUOO 271930Z 19006MPS 9999 BKN024CB 09/07 Q0995 R12/290150 TEMPO -TSRA RMK QFE732

时间: 22:57 (19:57 UTC)

预报

该预报发布于57分钟前的19:00 UTC
预报有效从27日的 20点(UTC)到 28日的 03点(UTC)
风速6节,风向南转西南
能见度10公里或以上
多云层高于1100英尺
小雨
短暂存在
从 27日的 20点(UTC)到 27日的 22点(UTC)
能見度: 3100
多云层高于1100英尺
多云层高于2000英尺, 积雨云.
雷暴, 小雨

TAF: UUOO 271900Z 2720/2803 20003MPS 9999 -RA BKN011 TEMPO 2720/2722 3100 -TSRA BKN011 BKN020CB

超过4000个机场的气象观测和天气预报(METAR&TAF报告)。

可查询的气象台以黄色和红色小点在地图上表示。

将鼠标移到小点上方,可查看气象台名称。

然后点击查看天气观测和预报。

如需切换地图:点击带黑十字的绿色按钮放大地图;点击带横线的绿色按钮缩小地图;或者点击绿色箭头查看邻近地区的地图。


METAR-TAF: